Time;durP1;ratioP1;P1;durP2;ratioP2;P2;SDS_P1;SDS_P2;PMS_P1;PMS_P2;Temp;Humidity;BMP_temperature;BMP_pressure;BME280_temperature;BME280_humidity;BME280_pressure;Samples;Min_cycle;Max_cycle;Signal;HPM_P1;HPM_P2
2021/12/20 00:00:26;;;;;;;42.75;19.35;;;6.00;99.90;;;;;;5032944;28;20109;-72
2021/12/20 00:02:59;;;;;;;39.92;20.23;;;6.00;99.90;;;;;;5032955;28;20375;-73
2021/12/20 00:05:26;;;;;;;79.55;32.90;;;6.00;99.90;;;;;;5033167;28;20108;-72
2021/12/20 00:07:51;;;;;;;110.47;44.78;;;6.00;99.90;;;;;;5033090;28;20036;-73
2021/12/20 00:10:18;;;;;;;33.28;19.85;;;6.10;99.90;;;;;;5033106;28;20022;-73
2021/12/20 00:12:44;;;;;;;35.33;17.38;;;6.10;99.90;;;;;;5033072;28;20101;-74
2021/12/20 00:15:11;;;;;;;22.10;13.10;;;6.10;99.90;;;;;;5033069;28;20057;-73
2021/12/20 00:17:37;;;;;;;25.85;14.93;;;6.00;99.90;;;;;;5034963;28;20115;-74
2021/12/20 00:20:04;;;;;;;19.73;12.75;;;6.10;99.90;;;;;;5036498;28;20064;-74
2021/12/20 00:22:30;;;;;;;22.77;12.63;;;6.10;99.90;;;;;;5036534;28;20377;-74
2021/12/20 00:24:56;;;;;;;23.70;11.32;;;6.10;99.90;;;;;;5036459;28;20053;-73
2021/12/20 00:27:21;;;;;;;23.88;12.07;;;6.10;99.90;;;;;;5036444;28;20351;-75
2021/12/20 00:29:48;;;;;;;19.58;11.95;;;6.10;99.90;;;;;;5036408;28;20022;-72
2021/12/20 00:32:15;;;;;;;20.60;11.75;;;6.10;99.90;;;;;;5036293;28;20057;-73
2021/12/20 00:34:41;;;;;;;21.40;11.63;;;6.10;99.90;;;;;;5036220;28;20026;-73
2021/12/20 00:40:20;;;;;;;19.65;10.93;;;6.10;99.90;;;;;;5036371;28;20472;-74
2021/12/20 00:42:41;;;;;;;21.65;11.68;;;6.20;99.90;;;;;;5036659;28;20036;-73
2021/12/20 00:45:08;;;;;;;18.80;10.73;;;6.10;99.90;;;;;;5036347;28;20417;-74
2021/12/20 00:47:34;;;;;;;20.05;11.05;;;6.10;99.90;;;;;;5036202;28;20433;-74
2021/12/20 00:49:59;;;;;;;19.52;10.43;;;6.20;99.90;;;;;;5035941;28;20036;-72
2021/12/20 00:52:25;;;;;;;25.02;11.18;;;6.10;99.90;;;;;;5035932;28;20025;-73
2021/12/20 00:54:51;;;;;;;20.20;11.00;;;6.20;99.90;;;;;;5036142;28;20112;-74
2021/12/20 00:57:17;;;;;;;19.55;11.43;;;6.20;99.90;;;;;;5035708;28;20462;-72
2021/12/20 00:59:43;;;;;;;20.52;11.23;;;6.20;99.90;;;;;;5036034;28;20018;-74
2021/12/20 01:02:09;;;;;;;19.73;10.75;;;6.20;99.90;;;;;;5035697;28;20083;-72
2021/12/20 01:04:35;;;;;;;22.90;11.50;;;6.20;99.90;;;;;;5035675;28;20045;-75
2021/12/20 01:07:00;;;;;;;21.92;11.23;;;6.20;99.90;;;;;;5034364;28;20410;-72
2021/12/20 01:09:26;;;;;;;20.60;11.70;;;6.20;99.90;;;;;;5035619;28;20029;-74
2021/12/20 01:11:54;;;;;;;21.02;11.15;;;6.30;99.90;;;;;;5035550;28;20021;-73
2021/12/20 01:14:24;;;;;;;21.83;12.02;;;6.30;99.90;;;;;;5035756;28;20067;-74
2021/12/20 01:16:51;;;;;;;21.45;11.18;;;6.20;99.90;;;;;;5036001;28;20105;-72
2021/12/20 01:19:17;;;;;;;19.65;11.43;;;6.20;99.90;;;;;;5035421;28;20025;-74
2021/12/20 01:21:43;;;;;;;19.38;10.35;;;6.30;99.90;;;;;;5035402;28;20026;-74
2021/12/20 01:24:09;;;;;;;18.00;9.65;;;6.30;99.90;;;;;;5035587;28;20128;-73
2021/12/20 01:26:34;;;;;;;20.50;11.13;;;6.20;99.90;;;;;;5035304;28;20516;-72
2021/12/20 01:29:01;;;;;;;17.55;9.20;;;6.20;99.90;;;;;;5034713;28;20064;-74
2021/12/20 01:31:26;;;;;;;18.02;10.75;;;6.20;99.90;;;;;;5035212;28;20432;-72
2021/12/20 01:33:52;;;;;;;19.98;11.32;;;6.20;99.90;;;;;;5035140;28;20025;-73
2021/12/20 01:36:18;;;;;;;18.10;10.10;;;6.20;99.90;;;;;;5035091;28;20033;-74
2021/12/20 01:38:43;;;;;;;18.02;10.15;;;6.20;99.90;;;;;;5033687;28;20037;-72
2021/12/20 01:41:10;;;;;;;17.95;10.45;;;6.20;99.90;;;;;;5034988;28;20028;-75
2021/12/20 01:43:37;;;;;;;17.25;9.63;;;6.20;99.90;;;;;;5033673;28;20509;-74
2021/12/20 01:46:04;;;;;;;14.63;8.55;;;6.20;99.90;;;;;;5034943;28;20025;-73
2021/12/20 01:48:31;;;;;;;16.55;9.40;;;6.20;99.90;;;;;;5034906;28;20036;-72
2021/12/20 01:53:31;;;;;;;17.05;9.40;;;6.10;99.90;;;;;;5034553;28;20090;-72
2021/12/20 01:55:58;;;;;;;18.55;9.23;;;6.20;99.90;;;;;;5034779;28;20462;-74
2021/12/20 01:58:26;;;;;;;16.88;8.80;;;6.10;99.90;;;;;;5034869;28;20107;-72
2021/12/20 02:01:34;;;;;;;17.23;9.60;;;6.10;99.90;;;;;;5034884;28;20025;-72
2021/12/20 02:03:45;;;;;;;18.60;8.47;;;6.10;99.90;;;;;;5034364;28;20479;-74
2021/12/20 02:06:24;;;;;;;16.80;9.70;;;6.10;99.90;;;;;;5033266;28;20022;-74
2021/12/20 02:08:50;;;;;;;17.80;9.40;;;6.10;99.90;;;;;;5032974;28;20099;-74
2021/12/20 02:11:19;;;;;;;16.55;9.32;;;6.10;99.90;;;;;;5034425;28;20481;-75
2021/12/20 02:13:45;;;;;;;16.55;9.13;;;6.00;99.90;;;;;;5034636;28;20429;-74
2021/12/20 02:16:10;;;;;;;16.88;10.02;;;6.10;99.90;;;;;;5034369;28;20029;-74
2021/12/20 02:18:37;;;;;;;15.23;8.45;;;6.10;99.90;;;;;;5034183;28;20029;-73
2021/12/20 02:21:03;;;;;;;17.38;8.95;;;6.10;99.90;;;;;;5034760;28;20014;-74
2021/12/20 02:23:28;;;;;;;18.00;8.98;;;6.10;99.90;;;;;;5034673;28;20032;-74
2021/12/20 02:25:54;;;;;;;17.00;9.43;;;6.10;99.90;;;;;;5034648;28;20033;-74
2021/12/20 02:28:21;;;;;;;17.75;9.18;;;6.10;99.90;;;;;;5034027;28;20124;-74
2021/12/20 02:38:51;;;;;;;15.05;8.38;;;6.00;99.90;;;;;;5034041;28;20120;-74
2021/12/20 02:41:19;;;;;;;14.30;7.38;;;6.00;99.90;;;;;;5034077;28;20075;-74
2021/12/20 02:43:59;;;;;;;15.05;7.65;;;6.00;99.90;;;;;;5034413;28;20029;-72
2021/12/20 02:48:57;;;;;;;15.45;7.40;;;6.00;99.90;;;;;;5033511;28;20349;-72
2021/12/20 02:51:24;;;;;;;15.23;7.93;;;6.00;99.90;;;;;;5033724;28;20053;-75
2021/12/20 02:53:54;;;;;;;15.65;7.95;;;6.00;99.90;;;;;;5033667;28;20100;-73
2021/12/20 02:56:20;;;;;;;15.05;8.45;;;6.00;99.90;;;;;;5033930;28;20026;-74
2021/12/20 02:58:45;;;;;;;15.10;8.48;;;6.00;99.90;;;;;;5033492;28;20079;-74
2021/12/20 03:01:12;;;;;;;15.73;8.35;;;6.00;99.90;;;;;;5033525;28;20013;-74
2021/12/20 03:03:38;;;;;;;15.95;8.73;;;6.00;99.90;;;;;;5032182;28;20510;-73
2021/12/20 03:06:11;;;;;;;15.02;7.90;;;6.00;99.90;;;;;;5033503;28;20029;-73
2021/12/20 03:08:38;;;;;;;13.70;7.97;;;6.00;99.90;;;;;;5034007;28;20547;-74
2021/12/20 03:11:04;;;;;;;15.30;8.77;;;6.00;99.90;;;;;;5033405;28;20040;-72
2021/12/20 03:13:30;;;;;;;14.80;8.40;;;6.00;99.90;;;;;;5033384;28;20029;-74
2021/12/20 03:15:56;;;;;;;13.88;7.50;;;6.00;99.90;;;;;;5033397;28;20033;-74
2021/12/20 03:18:21;;;;;;;14.10;8.02;;;6.00;99.90;;;;;;5033515;28;20367;-75
2021/12/20 03:20:47;;;;;;;13.25;7.47;;;6.00;99.90;;;;;;5033305;28;20052;-72
2021/12/20 03:23:12;;;;;;;13.32;7.85;;;6.00;99.90;;;;;;5033200;28;20021;-72
2021/12/20 03:25:38;;;;;;;13.45;7.97;;;6.00;99.90;;;;;;5033288;28;20076;-73
2021/12/20 03:28:04;;;;;;;13.60;7.45;;;6.00;99.90;;;;;;5033035;28;20045;-74
2021/12/20 03:30:29;;;;;;;13.60;7.65;;;6.00;99.90;;;;;;5033201;28;20030;-73
2021/12/20 03:32:55;;;;;;;13.73;7.70;;;6.00;99.90;;;;;;5033437;28;20030;-75
2021/12/20 03:35:21;;;;;;;13.13;8.00;;;6.00;99.90;;;;;;5033153;28;20049;-74
2021/12/20 03:37:46;;;;;;;12.68;8.40;;;6.10;99.90;;;;;;5033081;28;20029;-73
2021/12/20 03:40:12;;;;;;;14.10;8.13;;;6.10;99.90;;;;;;5033098;28;20029;-73
2021/12/20 03:42:42;;;;;;;14.10;7.97;;;6.10;99.90;;;;;;5033337;28;20104;-74
2021/12/20 03:45:09;;;;;;;14.48;7.95;;;6.10;99.90;;;;;;5031521;28;20025;-73
2021/12/20 03:47:35;;;;;;;14.55;7.85;;;6.10;99.90;;;;;;5033012;28;20030;-73
2021/12/20 03:50:00;;;;;;;14.38;8.25;;;6.00;99.90;;;;;;5033577;28;20034;-74
2021/12/20 03:52:26;;;;;;;14.02;7.25;;;5.90;99.90;;;;;;5035140;28;20104;-72
2021/12/20 03:54:52;;;;;;;13.30;7.03;;;5.90;99.90;;;;;;5037259;28;20493;-72
2021/12/20 03:57:17;;;;;;;14.65;7.72;;;5.90;99.90;;;;;;5037138;28;20033;-72
2021/12/20 03:59:47;;;;;;;12.95;7.55;;;5.90;99.90;;;;;;5036925;28;20109;-74
2021/12/20 04:02:16;;;;;;;13.30;6.85;;;5.80;99.90;;;;;;5036829;28;20021;-74
2021/12/20 04:04:42;;;;;;;14.10;7.65;;;5.90;99.90;;;;;;5037414;28;20488;-73
2021/12/20 04:07:08;;;;;;;13.15;7.78;;;5.80;99.90;;;;;;5036735;28;20061;-74
2021/12/20 04:09:33;;;;;;;13.57;7.25;;;5.80;99.90;;;;;;5036692;28;20049;-73
2021/12/20 04:11:59;;;;;;;14.93;7.85;;;5.80;99.90;;;;;;5036499;28;20029;-73
2021/12/20 04:14:24;;;;;;;12.90;7.18;;;5.80;99.90;;;;;;5037170;28;20021;-72
2021/12/20 04:16:50;;;;;;;11.93;6.43;;;5.80;99.90;;;;;;5036575;28;20025;-74
2021/12/20 04:19:16;;;;;;;12.50;7.57;;;5.80;99.90;;;;;;5036475;28;20029;-73
2021/12/20 04:21:41;;;;;;;14.30;7.32;;;5.80;99.90;;;;;;5036462;28;20475;-73
2021/12/20 04:24:07;;;;;;;11.52;6.70;;;5.80;99.90;;;;;;5036355;28;20371;-72
2021/12/20 04:26:33;;;;;;;13.80;6.68;;;5.80;99.90;;;;;;5036672;28;20056;-74
2021/12/20 04:28:58;;;;;;;14.32;7.07;;;5.80;99.90;;;;;;5036118;28;20050;-72
2021/12/20 04:31:24;;;;;;;11.70;6.47;;;5.80;99.90;;;;;;5036581;28;20029;-71
2021/12/20 04:33:51;;;;;;;12.65;6.57;;;5.80;99.90;;;;;;5034970;28;20064;-74
2021/12/20 04:36:16;;;;;;;12.25;6.82;;;5.70;99.90;;;;;;5036220;28;20029;-72
2021/12/20 04:38:43;;;;;;;12.07;6.90;;;5.70;99.90;;;;;;5036126;28;20017;-73
2021/12/20 04:41:09;;;;;;;11.88;6.68;;;5.70;99.90;;;;;;5036713;28;20018;-73
2021/12/20 04:43:35;;;;;;;13.20;6.95;;;5.70;99.90;;;;;;5036109;28;20100;-72
2021/12/20 04:46:00;;;;;;;13.57;7.00;;;5.70;99.90;;;;;;5036070;28;20562;-73
2021/12/20 04:48:26;;;;;;;14.27;7.45;;;5.70;99.90;;;;;;5034722;28;20484;-72
2021/12/20 04:50:52;;;;;;;13.77;7.30;;;5.70;99.90;;;;;;5035938;28;20025;-74
2021/12/20 04:53:17;;;;;;;13.65;7.82;;;5.60;99.90;;;;;;5035903;28;20042;-73
2021/12/20 04:55:43;;;;;;;12.40;6.95;;;5.70;99.90;;;;;;5035845;28;20029;-73
2021/12/20 04:58:09;;;;;;;12.32;7.95;;;5.70;99.90;;;;;;5035721;28;20034;-73
2021/12/20 05:00:36;;;;;;;13.98;7.18;;;5.60;99.90;;;;;;5035817;28;20083;-74
2021/12/20 05:03:04;;;;;;;13.27;7.70;;;5.60;99.90;;;;;;5035200;28;20504;-73
2021/12/20 05:05:29;;;;;;;13.50;7.47;;;5.60;99.90;;;;;;5035989;28;20045;-73
2021/12/20 05:07:56;;;;;;;12.88;7.25;;;5.60;99.90;;;;;;5035635;28;20061;-72
2021/12/20 05:10:56;;;;;;;14.93;7.88;;;5.60;99.90;;;;;;5035886;28;20025;-72
2021/12/20 05:13:15;;;;;;;15.30;7.47;;;5.60;99.90;;;;;;5035562;28;20072;-72
2021/12/20 05:15:41;;;;;;;12.20;7.13;;;5.60;99.90;;;;;;5035551;28;20032;-75
2021/12/20 05:18:08;;;;;;;14.27;7.53;;;5.70;99.90;;;;;;5035346;28;20080;-72
2021/12/20 05:20:35;;;;;;;15.90;7.72;;;5.70;99.90;;;;;;5035466;28;20025;-74
2021/12/20 05:23:04;;;;;;;12.45;6.85;;;5.70;99.90;;;;;;5035409;28;20393;-73
2021/12/20 05:25:30;;;;;;;12.82;7.28;;;5.70;99.90;;;;;;5035276;28;20018;-74
2021/12/20 05:27:56;;;;;;;13.93;7.38;;;5.70;99.90;;;;;;5035075;28;20103;-72
2021/12/20 05:30:22;;;;;;;13.63;7.53;;;5.70;99.90;;;;;;5035273;28;20108;-73
2021/12/20 05:32:48;;;;;;;13.27;6.93;;;5.70;99.90;;;;;;5035201;28;20033;-72
2021/12/20 05:35:15;;;;;;;14.43;8.40;;;5.80;99.90;;;;;;5035129;28;20413;-72
2021/12/20 05:37:41;;;;;;;14.63;8.07;;;5.70;99.90;;;;;;5035324;28;20029;-73
2021/12/20 05:40:10;;;;;;;12.55;7.28;;;5.70;99.90;;;;;;5035340;28;20025;-73
2021/12/20 05:42:36;;;;;;;15.07;8.60;;;5.70;99.90;;;;;;5035308;28;20103;-74
2021/12/20 05:45:04;;;;;;;20.80;11.10;;;5.70;99.90;;;;;;5034933;28;20021;-73
2021/12/20 05:47:29;;;;;;;39.60;19.90;;;5.70;99.90;;;;;;5034909;28;20021;-74
2021/12/20 05:49:55;;;;;;;12.73;6.72;;;5.70;99.90;;;;;;5035120;28;20030;-71
2021/12/20 05:52:21;;;;;;;12.43;6.80;;;5.60;99.90;;;;;;5034827;28;20025;-74
2021/12/20 05:54:46;;;;;;;11.65;6.60;;;5.50;99.90;;;;;;5034758;28;20025;-72
2021/12/20 05:57:12;;;;;;;13.10;7.38;;;5.50;99.90;;;;;;5034923;28;20470;-74
2021/12/20 05:59:38;;;;;;;14.07;7.32;;;5.40;99.90;;;;;;5034713;28;20029;-73
2021/12/20 06:02:04;;;;;;;12.48;7.20;;;5.40;99.90;;;;;;5034660;28;20072;-73
2021/12/20 06:04:30;;;;;;;14.60;7.10;;;5.30;99.90;;;;;;5034828;28;20018;-73
2021/12/20 06:06:56;;;;;;;11.63;6.80;;;5.40;99.90;;;;;;5034824;28;20025;-74
2021/12/20 06:09:22;;;;;;;13.52;7.45;;;5.40;99.90;;;;;;5035088;28;20101;-73
2021/12/20 06:11:48;;;;;;;13.85;7.80;;;5.40;99.90;;;;;;5034742;28;20033;-73
2021/12/20 06:14:13;;;;;;;12.75;6.22;;;5.40;99.90;;;;;;5033529;28;20446;-73
2021/12/20 06:16:39;;;;;;;13.77;7.18;;;5.40;99.90;;;;;;5033027;28;20033;-73
2021/12/20 06:19:05;;;;;;;15.30;8.15;;;5.30;99.90;;;;;;5034203;28;20033;-73
2021/12/20 06:21:31;;;;;;;12.88;6.90;;;5.30;99.90;;;;;;5034494;28;20024;-72
2021/12/20 06:23:56;;;;;;;12.20;7.00;;;5.30;99.90;;;;;;5034089;28;20021;-73
2021/12/20 06:26:23;;;;;;;13.00;6.93;;;5.30;99.90;;;;;;5034131;28;20032;-74
2021/12/20 06:28:52;;;;;;;14.07;7.07;;;5.20;99.90;;;;;;5033924;28;20053;-74
2021/12/20 06:31:18;;;;;;;13.25;7.30;;;5.20;99.90;;;;;;5034035;28;20393;-73
2021/12/20 06:33:44;;;;;;;13.95;6.90;;;5.20;99.90;;;;;;5034048;28;20079;-74
2021/12/20 06:36:10;;;;;;;13.68;7.15;;;5.10;99.90;;;;;;5033982;28;20510;-74
2021/12/20 06:38:42;;;;;;;13.60;7.70;;;5.10;99.90;;;;;;5033887;28;20104;-73
2021/12/20 06:41:08;;;;;;;13.13;6.53;;;5.20;99.90;;;;;;5033949;28;20450;-73
2021/12/20 06:43:34;;;;;;;12.82;7.10;;;5.30;99.90;;;;;;5033893;28;20057;-73
2021/12/20 06:45:59;;;;;;;14.35;7.95;;;5.30;99.90;;;;;;5033818;28;20025;-72
2021/12/20 06:48:26;;;;;;;13.85;8.02;;;5.30;99.90;;;;;;5033765;28;20034;-73
2021/12/20 06:50:51;;;;;;;13.38;8.00;;;5.30;99.90;;;;;;5034031;28;20036;-73
2021/12/20 06:53:17;;;;;;;14.88;8.02;;;5.30;99.90;;;;;;5033733;28;20025;-73
2021/12/20 06:55:43;;;;;;;13.13;7.50;;;5.40;99.90;;;;;;5033677;28;20401;-73
2021/12/20 06:58:09;;;;;;;15.32;8.43;;;5.50;99.90;;;;;;5033520;28;20025;-74
2021/12/20 07:00:35;;;;;;;14.38;7.63;;;5.50;99.90;;;;;;5033917;28;20060;-73
2021/12/20 07:03:01;;;;;;;14.23;7.90;;;5.50;99.90;;;;;;5032320;28;20394;-75
2021/12/20 07:05:27;;;;;;;13.63;7.95;;;5.40;99.90;;;;;;5033541;28;20363;-73
2021/12/20 07:07:53;;;;;;;15.88;8.55;;;5.40;99.90;;;;;;5033823;28;20033;-74
2021/12/20 07:10:19;;;;;;;15.35;7.43;;;5.40;99.90;;;;;;5033726;28;20017;-74
2021/12/20 07:12:44;;;;;;;13.70;7.68;;;5.40;99.90;;;;;;5033690;28;20032;-74
2021/12/20 07:15:13;;;;;;;15.23;8.02;;;5.40;99.90;;;;;;5033341;28;20021;-72
2021/12/20 07:17:40;;;;;;;14.98;8.43;;;5.30;99.90;;;;;;5033545;28;20029;-74
2021/12/20 07:20:07;;;;;;;16.02;7.90;;;5.30;99.90;;;;;;5033370;28;20105;-73
2021/12/20 07:22:33;;;;;;;14.13;7.32;;;5.30;99.90;;;;;;5033279;28;20029;-74
2021/12/20 07:25:00;;;;;;;15.40;8.95;;;5.30;99.90;;;;;;5033262;28;20389;-73
2021/12/20 07:27:25;;;;;;;14.95;8.55;;;5.30;99.90;;;;;;5033136;28;20036;-74
2021/12/20 07:29:51;;;;;;;15.18;7.97;;;5.30;99.90;;;;;;5033243;28;20398;-72
2021/12/20 07:32:17;;;;;;;14.93;8.10;;;5.30;99.90;;;;;;5031899;28;20390;-73
2021/12/20 07:34:43;;;;;;;16.23;8.52;;;5.30;99.90;;;;;;5033149;28;20040;-72
2021/12/20 07:37:09;;;;;;;15.15;8.45;;;5.30;99.90;;;;;;5033099;28;20032;-72
2021/12/20 07:39:35;;;;;;;26.25;14.48;;;5.20;99.90;;;;;;5033143;28;20021;-73
2021/12/20 07:42:01;;;;;;;15.77;8.95;;;5.20;99.90;;;;;;5033085;28;20382;-73
2021/12/20 07:44:27;;;;;;;20.30;11.25;;;5.20;99.90;;;;;;5033067;28;20034;-73
2021/12/20 07:46:53;;;;;;;15.18;8.32;;;5.20;99.90;;;;;;5033352;28;20022;-72
2021/12/20 07:49:18;;;;;;;17.05;9.82;;;5.20;99.90;;;;;;5033056;28;20036;-73
2021/12/20 07:51:45;;;;;;;18.48;10.57;;;5.20;99.90;;;;;;5033038;28;20026;-73
2021/12/20 07:54:11;;;;;;;16.95;9.32;;;5.20;99.90;;;;;;5033039;28;20401;-73
2021/12/20 07:56:36;;;;;;;17.25;9.27;;;5.20;99.90;;;;;;5032943;28;20044;-72
2021/12/20 07:59:02;;;;;;;21.50;13.10;;;5.20;99.90;;;;;;5032901;28;20029;-74
2021/12/20 08:01:29;;;;;;;16.83;9.27;;;5.20;99.90;;;;;;5032941;28;20018;-74
2021/12/20 08:03:55;;;;;;;17.02;9.38;;;5.20;99.90;;;;;;5032912;28;20026;-73
2021/12/20 08:06:21;;;;;;;18.08;10.55;;;5.20;99.90;;;;;;5032889;28;20022;-74
2021/12/20 08:08:47;;;;;;;14.93;8.75;;;5.20;99.90;;;;;;5033119;28;20091;-74
2021/12/20 08:11:13;;;;;;;24.33;15.02;;;5.20;99.90;;;;;;5032630;28;20037;-74
2021/12/20 08:13:44;;;;;;;26.70;15.32;;;5.20;99.90;;;;;;5044362;28;20104;-74
2021/12/20 08:16:11;;;;;;;19.17;11.27;;;5.10;99.90;;;;;;5045172;28;20040;-76
2021/12/20 08:18:39;;;;;;;19.77;10.73;;;5.20;99.90;;;;;;5052881;28;20055;-77
2021/12/20 08:21:04;;;;;;;22.50;13.07;;;5.20;99.90;;;;;;5047831;28;20485;-77
2021/12/20 08:23:30;;;;;;;25.38;15.00;;;5.20;99.90;;;;;;5033006;28;20035;-77
2021/12/20 08:25:55;;;;;;;24.55;10.60;;;5.10;99.90;;;;;;5032722;28;20029;-74
2021/12/20 08:28:21;;;;;;;19.67;10.63;;;5.10;99.90;;;;;;5032689;28;20489;-75
2021/12/20 08:30:47;;;;;;;27.23;15.23;;;5.10;99.90;;;;;;5033646;28;20037;-72
2021/12/20 08:33:13;;;;;;;25.25;14.70;;;5.10;99.90;;;;;;5033026;28;20463;-73
2021/12/20 08:35:40;;;;;;;23.65;13.00;;;5.20;99.90;;;;;;5034777;28;20410;-75
2021/12/20 08:38:05;;;;;;;18.90;10.55;;;5.20;99.90;;;;;;5045715;28;20529;-74
2021/12/20 08:40:31;;;;;;;20.70;11.05;;;5.20;99.90;;;;;;5040292;28;20156;-73
2021/12/20 08:42:57;;;;;;;26.65;19.60;;;5.20;99.90;;;;;;5048406;28;20464;-73
2021/12/20 08:45:23;;;;;;;21.50;11.13;;;5.20;99.90;;;;;;5036555;28;20462;-73
2021/12/20 08:47:48;;;;;;;21.23;11.35;;;5.20;99.90;;;;;;5037299;28;20361;-73
2021/12/20 08:50:18;;;;;;;19.00;10.90;;;5.20;99.90;;;;;;5035966;28;20108;-74
2021/12/20 08:52:44;;;;;;;22.02;11.15;;;5.20;99.90;;;;;;5037481;28;20106;-74
2021/12/20 08:55:10;;;;;;;19.17;10.32;;;5.30;99.90;;;;;;5035909;28;20025;-75
2021/12/20 08:57:36;;;;;;;20.35;11.48;;;5.20;99.90;;;;;;5037192;28;20115;-74
2021/12/20 09:00:09;;;;;;;18.23;10.40;;;5.20;99.90;;;;;;5035879;28;20422;-75
2021/12/20 09:02:35;;;;;;;19.60;10.57;;;5.20;99.90;;;;;;5038098;28;20033;-74
2021/12/20 09:05:01;;;;;;;20.77;11.10;;;5.30;99.90;;;;;;5035955;28;20441;-76
2021/12/20 09:07:27;;;;;;;23.55;11.85;;;5.20;99.90;;;;;;5036814;28;20104;-78
2021/12/20 09:09:53;;;;;;;20.83;11.55;;;5.20;99.90;;;;;;5045664;28;20113;-75
2021/12/20 09:12:20;;;;;;;19.52;11.07;;;5.20;99.90;;;;;;5054058;28;20104;-74
2021/12/20 09:14:46;;;;;;;22.25;11.95;;;5.20;99.90;;;;;;5047442;28;20464;-79
2021/12/20 09:17:12;;;;;;;22.63;12.77;;;5.30;99.90;;;;;;5041688;28;20029;-76
2021/12/20 09:19:37;;;;;;;21.30;11.93;;;5.30;99.90;;;;;;5035460;28;20032;-75
2021/12/20 09:22:07;;;;;;;26.02;13.73;;;5.20;99.90;;;;;;5044883;28;20374;-77
2021/12/20 09:24:34;;;;;;;27.27;13.57;;;5.30;99.90;;;;;;5047921;28;20083;-73
2021/12/20 09:27:01;;;;;;;28.85;14.00;;;5.30;99.90;;;;;;5045542;28;20029;-73
2021/12/20 09:29:26;;;;;;;22.88;12.90;;;5.30;99.90;;;;;;5034956;28;20107;-75
2021/12/20 09:31:56;;;;;;;25.80;13.98;;;5.30;99.90;;;;;;5048116;28;20048;-73
2021/12/20 09:34:22;;;;;;;25.67;13.88;;;5.30;99.90;;;;;;5055576;28;20086;-76
2021/12/20 09:36:47;;;;;;;29.23;15.35;;;5.30;99.90;;;;;;5055328;28;20025;-72
2021/12/20 09:39:16;;;;;;;28.42;14.25;;;5.30;99.90;;;;;;5053511;28;20033;-74
2021/12/20 09:44:11;;;;;;;25.77;14.15;;;5.30;99.90;;;;;;5036323;28;20021;-75
2021/12/20 09:46:38;;;;;;;27.58;16.23;;;5.30;99.90;;;;;;5038959;28;20028;-73
2021/12/20 09:49:06;;;;;;;28.75;14.68;;;5.30;99.90;;;;;;5053542;28;20071;-75
2021/12/20 09:51:32;;;;;;;26.58;14.27;;;5.30;99.90;;;;;;5054773;28;20087;-75
2021/12/20 09:53:57;;;;;;;32.00;14.57;;;5.20;99.90;;;;;;5052831;28;20028;-75
2021/12/20 09:56:26;;;;;;;28.05;14.90;;;5.20;99.90;;;;;;5054700;28;20037;-75
2021/12/20 09:58:55;;;;;;;30.73;15.30;;;5.20;99.90;;;;;;5038680;28;20025;-75
2021/12/20 10:01:22;;;;;;;28.50;15.13;;;5.20;99.90;;;;;;5035967;28;20026;-76
2021/12/20 10:03:49;;;;;;;27.25;14.02;;;5.30;99.90;;;;;;5035901;28;20026;-76
2021/12/20 10:06:15;;;;;;;28.58;14.73;;;5.30;99.90;;;;;;5035991;28;20100;-77
2021/12/20 10:08:50;;;;;;;27.30;14.57;;;5.20;99.90;;;;;;5034538;28;20025;-74
2021/12/20 10:11:24;;;;;;;29.02;14.18;;;5.20;99.90;;;;;;5035702;28;20021;-71
2021/12/20 10:14:11;;;;;;;29.35;14.43;;;5.20;99.90;;;;;;5035196;28;20108;-73
2021/12/20 10:16:38;;;;;;;26.63;14.73;;;5.20;99.90;;;;;;5034935;28;20029;-75
2021/12/20 10:19:09;;;;;;;27.27;14.15;;;5.20;99.90;;;;;;5051151;28;20501;-75
2021/12/20 10:21:44;;;;;;;29.20;13.95;;;5.40;99.90;;;;;;5041438;28;20013;-74
2021/12/20 10:24:30;;;;;;;26.48;13.80;;;5.30;99.90;;;;;;5054404;28;20029;-73
2021/12/20 10:26:56;;;;;;;27.73;14.40;;;5.20;99.90;;;;;;5039998;28;20121;-76
2021/12/20 10:29:22;;;;;;;28.35;14.45;;;5.20;99.90;;;;;;5033825;28;20064;-71
2021/12/20 10:31:49;;;;;;;27.73;14.32;;;5.30;99.90;;;;;;5034125;28;20510;-73
2021/12/20 10:34:18;;;;;;;25.25;13.45;;;5.40;99.90;;;;;;5034117;28;20017;-72
2021/12/20 10:36:58;;;;;;;26.98;14.30;;;5.40;99.90;;;;;;5034039;28;20456;-73
2021/12/20 10:39:41;;;;;;;28.27;13.45;;;5.30;99.90;;;;;;5050671;28;20100;-75
2021/12/20 10:42:27;;;;;;;24.67;13.75;;;5.50;99.90;;;;;;5054082;28;20167;-75
2021/12/20 10:45:15;;;;;;;23.58;12.55;;;5.50;99.90;;;;;;5047606;28;20017;-72
2021/12/20 10:47:42;;;;;;;25.50;14.02;;;5.40;99.90;;;;;;5033823;28;20116;-72
2021/12/20 10:50:31;;;;;;;25.88;13.75;;;5.30;99.90;;;;;;5045323;28;20080;-75
2021/12/20 10:53:33;;;;;;;28.70;14.32;;;5.40;99.90;;;;;;5053962;28;20421;-74
2021/12/20 10:56:03;;;;;;;29.63;14.18;;;5.30;99.90;;;;;;5051720;28;20082;-75
2021/12/20 10:58:38;;;;;;;24.83;13.60;;;5.40;99.90;;;;;;5053483;28;20462;-72
2021/12/20 11:01:15;;;;;;;29.33;14.60;;;5.40;99.90;;;;;;5052704;28;20025;-73
2021/12/20 11:03:43;;;;;;;28.08;13.68;;;5.40;99.90;;;;;;5033854;28;20017;-75
2021/12/20 11:11:30;;;;;;;27.95;15.75;;;5.30;99.90;;;;;;5038410;28;20075;-75
2021/12/20 11:13:58;;;;;;;26.38;14.63;;;5.30;99.90;;;;;;5033703;28;20036;-77
2021/12/20 11:16:29;;;;;;;24.85;13.85;;;5.30;99.90;;;;;;5034386;28;20017;-76
2021/12/20 11:19:07;;;;;;;27.08;13.77;;;5.30;99.90;;;;;;5049541;28;20029;-76
2021/12/20 11:21:34;;;;;;;26.98;15.23;;;5.30;99.90;;;;;;5050224;28;20017;-74
2021/12/20 11:24:00;;;;;;;27.80;14.15;;;5.30;99.90;;;;;;5033525;28;20037;-80
2021/12/20 11:26:30;;;;;;;29.65;15.48;;;5.20;99.90;;;;;;5050562;28;20021;-75
2021/12/20 11:28:56;;;;;;;28.83;15.43;;;5.20;99.90;;;;;;5047803;28;20409;-74
2021/12/20 11:31:23;;;;;;;30.90;15.40;;;5.40;99.90;;;;;;5041286;28;20065;-72
2021/12/20 11:33:49;;;;;;;28.33;14.45;;;5.30;99.90;;;;;;5034064;28;20022;-73
2021/12/20 11:36:14;;;;;;;28.77;15.52;;;5.40;99.90;;;;;;5032968;28;20092;-73
2021/12/20 11:38:40;;;;;;;32.83;15.82;;;5.50;99.90;;;;;;5030432;28;20030;-73
2021/12/20 11:41:07;;;;;;;30.92;15.27;;;5.60;99.90;;;;;;5031982;28;20018;-73
2021/12/20 11:43:33;;;;;;;28.70;15.68;;;5.60;99.90;;;;;;5032382;28;20032;-74
2021/12/20 11:45:59;;;;;;;30.90;15.88;;;5.60;99.90;;;;;;5032431;28;20021;-74
2021/12/20 11:48:28;;;;;;;27.38;15.93;;;5.70;99.90;;;;;;5031063;28;20505;-71
2021/12/20 11:50:58;;;;;;;30.23;15.85;;;5.60;99.90;;;;;;5032511;28;20022;-74
2021/12/20 11:53:23;;;;;;;30.25;16.33;;;5.60;99.90;;;;;;5033604;28;20026;-72
2021/12/20 11:55:50;;;;;;;28.52;16.30;;;5.70;99.90;;;;;;5033260;28;20028;-72
2021/12/20 11:58:39;;;;;;;26.63;14.48;;;5.60;99.90;;;;;;5033219;28;20080;-73
2021/12/20 12:01:16;;;;;;;29.38;15.52;;;5.80;99.90;;;;;;5033056;28;20023;-76
2021/12/20 12:03:53;;;;;;;28.45;16.48;;;5.90;99.90;;;;;;5033275;28;20026;-73
2021/12/20 12:06:30;;;;;;;31.60;16.08;;;5.90;99.90;;;;;;5032960;28;20017;-72
2021/12/20 12:08:59;;;;;;;29.40;16.73;;;5.90;99.90;;;;;;5033214;28;20021;-74
2021/12/20 12:11:24;;;;;;;28.38;15.88;;;5.80;99.90;;;;;;5033031;28;20025;-73
2021/12/20 12:14:04;;;;;;;25.33;14.30;;;5.70;99.90;;;;;;5035493;28;20052;-72
2021/12/20 12:16:56;;;;;;;25.77;15.02;;;5.60;99.90;;;;;;5037276;28;20444;-74
2021/12/20 12:19:49;;;;;;;23.75;13.77;;;5.60;99.90;;;;;;5036534;28;20096;-73
2021/12/20 12:22:27;;;;;;;26.83;15.95;;;5.60;99.90;;;;;;5036408;28;20034;-73
2021/12/20 12:24:55;;;;;;;23.10;13.63;;;5.40;99.90;;;;;;5036732;28;20032;-71
2021/12/20 12:27:28;;;;;;;23.25;14.52;;;5.40;99.90;;;;;;5036855;28;20368;-72
2021/12/20 12:30:14;;;;;;;24.83;14.00;;;5.40;99.90;;;;;;5036807;28;20124;-74
2021/12/20 12:32:49;;;;;;;26.70;15.52;;;5.60;99.90;;;;;;5035497;28;20030;-72
2021/12/20 12:35:39;;;;;;;25.70;14.88;;;5.50;99.90;;;;;;5036454;28;20079;-74
2021/12/20 12:38:25;;;;;;;;;;;5.50;99.90;;;;;;5037174;28;20155;-74
2021/12/20 12:41:18;;;;;;;25.90;14.10;;;5.60;99.90;;;;;;5036298;28;19912;-75
2021/12/20 12:44:18;;;;;;;24.50;14.38;;;5.50;99.90;;;;;;5036246;28;20014;-73
2021/12/20 12:46:53;;;;;;;26.70;15.15;;;5.50;99.90;;;;;;5036450;28;20063;-73
2021/12/20 12:49:26;;;;;;;27.63;15.18;;;5.40;99.90;;;;;;5036083;28;20036;-72
2021/12/20 12:52:27;;;;;;;25.58;15.93;;;5.40;99.90;;;;;;5034776;28;20108;-73
2021/12/20 12:55:01;;;;;;;27.35;16.02;;;5.50;99.90;;;;;;5034674;28;20041;-73
2021/12/20 12:57:28;;;;;;;26.63;15.82;;;5.40;99.90;;;;;;5036142;28;20026;-73
2021/12/20 13:00:04;;;;;;;29.50;15.55;;;5.40;99.90;;;;;;5035848;28;20021;-74
2021/12/20 13:02:30;;;;;;;24.60;15.32;;;5.50;99.90;;;;;;5035834;28;20026;-73
2021/12/20 13:04:58;;;;;;;27.75;16.85;;;5.60;99.90;;;;;;5036055;28;20021;-73
2021/12/20 13:07:33;;;;;;;28.38;16.80;;;5.70;99.90;;;;;;5035977;28;20492;-72
2021/12/20 13:10:03;;;;;;;26.48;15.82;;;5.80;99.90;;;;;;5034730;28;20179;-75